sensor_id;sensor_type;location;lat;lon;timestamp;P1;durP1;ratioP1;P2;durP2;ratioP2
25327;SDS011;13279;51.300;12.394;2022-07-06T03:16:30;11.00;;;1.80;;
25327;SDS011;13279;51.300;12.394;2022-07-06T03:18:58;3.73;;;1.37;;
25327;SDS011;13279;51.300;12.394;2022-07-06T03:21:26;2.80;;;1.73;;
25327;SDS011;13279;51.300;12.394;2022-07-06T03:23:54;3.80;;;1.60;;
25327;SDS011;13279;51.300;12.394;2022-07-06T03:26:21;2.87;;;1.57;;
25327;SDS011;13279;51.300;12.394;2022-07-06T03:28:49;2.60;;;1.63;;
25327;SDS011;13279;51.300;12.394;2022-07-06T03:31:17;7.93;;;1.57;;
25327;SDS011;13279;51.300;12.394;2022-07-06T03:33:47;4.73;;;2.00;;
25327;SDS011;13279;51.300;12.394;2022-07-06T03:36:16;5.13;;;2.27;;
25327;SDS011;13279;51.300;12.394;2022-07-06T03:38:44;5.90;;;1.50;;
25327;SDS011;13279;51.300;12.394;2022-07-06T03:41:11;3.23;;;1.77;;
25327;SDS011;13279;51.300;12.394;2022-07-06T03:43:39;5.07;;;1.87;;
25327;SDS011;13279;51.300;12.394;2022-07-06T03:46:07;8.43;;;1.60;;
25327;SDS011;13279;51.300;12.394;2022-07-06T03:48:34;4.50;;;1.57;;
25327;SDS011;13279;51.300;12.394;2022-07-06T03:51:06;6.37;;;1.67;;
25327;SDS011;13279;51.300;12.394;2022-07-06T03:53:34;5.10;;;1.70;;
25327;SDS011;13279;51.300;12.394;2022-07-06T03:56:02;7.50;;;2.23;;
25327;SDS011;13279;51.300;12.394;2022-07-06T04:02:35;3.43;;;1.63;;
25327;SDS011;13279;51.300;12.394;2022-07-06T04:05:04;5.50;;;1.53;;
25327;SDS011;13279;51.300;12.394;2022-07-06T04:07:34;2.63;;;1.53;;
25327;SDS011;13279;51.300;12.394;2022-07-06T04:10:03;3.13;;;1.53;;
25327;SDS011;13279;51.300;12.394;2022-07-06T04:12:30;2.60;;;1.40;;
25327;SDS011;13279;51.300;12.394;2022-07-06T04:14:58;10.10;;;1.77;;
25327;SDS011;13279;51.300;12.394;2022-07-06T04:17:26;5.63;;;1.50;;
25327;SDS011;13279;51.300;12.394;2022-07-06T04:20:11;3.07;;;1.60;;
25327;SDS011;13279;51.300;12.394;2022-07-06T04:22:40;1.63;;;1.10;;
25327;SDS011;13279;51.300;12.394;2022-07-06T04:25:08;3.93;;;1.30;;
25327;SDS011;13279;51.300;12.394;2022-07-06T04:27:37;5.57;;;1.47;;
25327;SDS011;13279;51.300;12.394;2022-07-06T04:30:05;3.60;;;1.23;;
25327;SDS011;13279;51.300;12.394;2022-07-06T04:32:33;5.23;;;1.43;;
25327;SDS011;13279;51.300;12.394;2022-07-06T04:35:02;6.60;;;1.50;;
25327;SDS011;13279;51.300;12.394;2022-07-06T04:37:31;1.13;;;1.03;;
25327;SDS011;13279;51.300;12.394;2022-07-06T04:40:00;3.60;;;1.20;;
25327;SDS011;13279;51.300;12.394;2022-07-06T04:42:29;3.20;;;1.20;;
25327;SDS011;13279;51.300;12.394;2022-07-06T04:44:58;3.60;;;1.40;;
25327;SDS011;13279;51.300;12.394;2022-07-06T04:47:26;6.13;;;1.17;;
25327;SDS011;13279;51.300;12.394;2022-07-06T04:49:55;3.03;;;1.87;;
25327;SDS011;13279;51.300;12.394;2022-07-06T04:52:23;7.83;;;1.20;;
25327;SDS011;13279;51.300;12.394;2022-07-06T04:54:51;5.13;;;1.83;;
25327;SDS011;13279;51.300;12.394;2022-07-06T04:57:20;2.47;;;2.00;;
25327;SDS011;13279;51.300;12.394;2022-07-06T04:59:49;2.83;;;1.20;;
25327;SDS011;13279;51.300;12.394;2022-07-06T05:02:16;7.67;;;1.23;;
25327;SDS011;13279;51.300;12.394;2022-07-06T05:04:45;3.30;;;1.70;;
25327;SDS011;13279;51.300;12.394;2022-07-06T05:07:12;2.60;;;1.20;;
25327;SDS011;13279;51.300;12.394;2022-07-06T05:09:40;4.80;;;1.60;;
25327;SDS011;13279;51.300;12.394;2022-07-06T05:12:08;5.53;;;1.47;;
25327;SDS011;13279;51.300;12.394;2022-07-06T05:14:38;4.20;;;1.30;;
25327;SDS011;13279;51.300;12.394;2022-07-06T05:17:07;5.03;;;1.80;;
25327;SDS011;13279;51.300;12.394;2022-07-06T05:19:34;5.70;;;1.57;;
25327;SDS011;13279;51.300;12.394;2022-07-06T05:22:02;4.83;;;1.40;;
25327;SDS011;13279;51.300;12.394;2022-07-06T05:24:30;11.93;;;1.30;;
25327;SDS011;13279;51.300;12.394;2022-07-06T05:26:58;4.70;;;1.43;;
25327;SDS011;13279;51.300;12.394;2022-07-06T05:29:26;5.80;;;1.47;;
25327;SDS011;13279;51.300;12.394;2022-07-06T05:31:54;2.60;;;1.10;;
25327;SDS011;13279;51.300;12.394;2022-07-06T05:34:22;4.97;;;1.43;;
25327;SDS011;13279;51.300;12.394;2022-07-06T05:36:50;2.27;;;1.40;;
25327;SDS011;13279;51.300;12.394;2022-07-06T05:39:18;3.27;;;1.40;;
25327;SDS011;13279;51.300;12.394;2022-07-06T05:41:48;2.97;;;1.37;;
25327;SDS011;13279;51.300;12.394;2022-07-06T05:44:18;2.33;;;1.27;;
25327;SDS011;13279;51.300;12.394;2022-07-06T05:46:46;4.13;;;1.33;;
25327;SDS011;13279;51.300;12.394;2022-07-06T05:49:16;4.23;;;1.37;;
25327;SDS011;13279;51.300;12.394;2022-07-06T05:52:02;6.53;;;1.37;;
25327;SDS011;13279;51.300;12.394;2022-07-06T05:54:31;3.33;;;1.00;;
25327;SDS011;13279;51.300;12.394;2022-07-06T05:56:58;3.53;;;1.30;;
25327;SDS011;13279;51.300;12.394;2022-07-06T05:59:27;2.20;;;1.87;;
25327;SDS011;13279;51.300;12.394;2022-07-06T06:01:55;4.90;;;1.50;;
25327;SDS011;13279;51.300;12.394;2022-07-06T06:04:25;2.40;;;1.30;;
25327;SDS011;13279;51.300;12.394;2022-07-06T06:06:52;9.57;;;1.30;;
25327;SDS011;13279;51.300;12.394;2022-07-06T06:09:20;8.37;;;1.40;;
25327;SDS011;13279;51.300;12.394;2022-07-06T06:11:48;3.10;;;1.10;;
25327;SDS011;13279;51.300;12.394;2022-07-06T06:14:16;3.40;;;1.23;;
25327;SDS011;13279;51.300;12.394;2022-07-06T06:16:43;6.00;;;1.17;;
25327;SDS011;13279;51.300;12.394;2022-07-06T06:19:10;4.20;;;1.40;;
25327;SDS011;13279;51.300;12.394;2022-07-06T06:21:39;3.13;;;1.23;;
25327;SDS011;13279;51.300;12.394;2022-07-06T06:24:07;4.67;;;1.27;;
25327;SDS011;13279;51.300;12.394;2022-07-06T06:26:34;2.30;;;1.33;;
25327;SDS011;13279;51.300;12.394;2022-07-06T06:29:02;5.43;;;1.57;;
25327;SDS011;13279;51.300;12.394;2022-07-06T06:31:30;12.73;;;1.50;;
25327;SDS011;13279;51.300;12.394;2022-07-06T06:33:57;3.53;;;1.20;;
25327;SDS011;13279;51.300;12.394;2022-07-06T06:36:25;5.30;;;1.40;;
25327;SDS011;13279;51.300;12.394;2022-07-06T06:38:53;7.17;;;2.10;;
25327;SDS011;13279;51.300;12.394;2022-07-06T06:41:21;2.10;;;1.10;;
25327;SDS011;13279;51.300;12.394;2022-07-06T06:43:49;1.80;;;0.97;;
25327;SDS011;13279;51.300;12.394;2022-07-06T06:46:21;2.03;;;1.00;;
25327;SDS011;13279;51.300;12.394;2022-07-06T06:48:49;2.13;;;1.20;;
25327;SDS011;13279;51.300;12.394;2022-07-06T06:51:16;3.53;;;1.27;;
25327;SDS011;13279;51.300;12.394;2022-07-06T06:53:44;3.43;;;1.90;;
25327;SDS011;13279;51.300;12.394;2022-07-06T06:56:13;2.90;;;1.03;;
25327;SDS011;13279;51.300;12.394;2022-07-06T06:58:40;6.50;;;1.50;;
25327;SDS011;13279;51.300;12.394;2022-07-06T07:01:08;4.83;;;1.20;;
25327;SDS011;13279;51.300;12.394;2022-07-06T07:03:36;3.03;;;1.10;;
25327;SDS011;13279;51.300;12.394;2022-07-06T07:06:03;2.60;;;1.13;;
25327;SDS011;13279;51.300;12.394;2022-07-06T07:08:31;4.33;;;1.27;;
25327;SDS011;13279;51.300;12.394;2022-07-06T07:10:59;3.80;;;1.50;;
25327;SDS011;13279;51.300;12.394;2022-07-06T07:13:28;5.47;;;1.40;;
25327;SDS011;13279;51.300;12.394;2022-07-06T07:15:55;9.23;;;1.67;;
25327;SDS011;13279;51.300;12.394;2022-07-06T07:18:22;4.90;;;1.10;;
25327;SDS011;13279;51.300;12.394;2022-07-06T07:20:50;5.33;;;1.07;;
25327;SDS011;13279;51.300;12.394;2022-07-06T07:23:17;3.17;;;1.37;;
25327;SDS011;13279;51.300;12.394;2022-07-06T07:25:44;4.97;;;1.10;;
25327;SDS011;13279;51.300;12.394;2022-07-06T07:28:12;2.57;;;1.20;;
25327;SDS011;13279;51.300;12.394;2022-07-06T07:30:41;2.93;;;1.53;;
25327;SDS011;13279;51.300;12.394;2022-07-06T07:33:08;2.83;;;1.27;;
25327;SDS011;13279;51.300;12.394;2022-07-06T07:35:36;1.70;;;1.60;;
25327;SDS011;13279;51.300;12.394;2022-07-06T07:38:03;8.70;;;2.30;;
25327;SDS011;13279;51.300;12.394;2022-07-06T07:40:31;7.73;;;1.50;;
25327;SDS011;13279;51.300;12.394;2022-07-06T07:43:00;6.93;;;1.17;;
25327;SDS011;13279;51.300;12.394;2022-07-06T07:45:27;3.23;;;1.20;;
25327;SDS011;13279;51.300;12.394;2022-07-06T07:47:56;3.80;;;0.97;;
25327;SDS011;13279;51.300;12.394;2022-07-06T07:50:24;7.93;;;1.10;;
25327;SDS011;13279;51.300;12.394;2022-07-06T07:52:52;7.47;;;1.47;;
25327;SDS011;13279;51.300;12.394;2022-07-06T07:55:19;4.13;;;1.47;;
25327;SDS011;13279;51.300;12.394;2022-07-06T07:57:47;3.10;;;1.30;;
25327;SDS011;13279;51.300;12.394;2022-07-06T08:00:15;6.47;;;2.00;;
25327;SDS011;13279;51.300;12.394;2022-07-06T08:02:43;4.33;;;1.60;;
25327;SDS011;13279;51.300;12.394;2022-07-06T08:05:12;6.27;;;1.50;;
25327;SDS011;13279;51.300;12.394;2022-07-06T08:07:41;7.63;;;1.23;;
25327;SDS011;13279;51.300;12.394;2022-07-06T08:10:09;3.17;;;1.00;;
25327;SDS011;13279;51.300;12.394;2022-07-06T08:12:37;4.30;;;1.30;;
25327;SDS011;13279;51.300;12.394;2022-07-06T08:15:05;3.60;;;1.40;;
25327;SDS011;13279;51.300;12.394;2022-07-06T08:17:33;3.23;;;1.40;;
25327;SDS011;13279;51.300;12.394;2022-07-06T08:20:01;3.37;;;1.30;;
25327;SDS011;13279;51.300;12.394;2022-07-06T08:22:29;4.13;;;1.30;;
25327;SDS011;13279;51.300;12.394;2022-07-06T08:24:57;6.00;;;1.40;;
25327;SDS011;13279;51.300;12.394;2022-07-06T08:27:25;6.43;;;1.50;;
25327;SDS011;13279;51.300;12.394;2022-07-06T08:29:52;2.13;;;0.93;;
25327;SDS011;13279;51.300;12.394;2022-07-06T08:32:21;4.57;;;1.20;;
25327;SDS011;13279;51.300;12.394;2022-07-06T08:34:51;3.97;;;1.40;;
25327;SDS011;13279;51.300;12.394;2022-07-06T08:37:19;3.60;;;1.00;;
25327;SDS011;13279;51.300;12.394;2022-07-06T08:39:48;1.10;;;1.00;;
25327;SDS011;13279;51.300;12.394;2022-07-06T08:42:16;6.57;;;1.30;;
25327;SDS011;13279;51.300;12.394;2022-07-06T08:44:44;4.07;;;1.00;;
25327;SDS011;13279;51.300;12.394;2022-07-06T08:47:12;1.03;;;0.80;;
25327;SDS011;13279;51.300;12.394;2022-07-06T08:49:44;4.67;;;1.33;;
25327;SDS011;13279;51.300;12.394;2022-07-06T08:52:12;1.80;;;1.10;;
25327;SDS011;13279;51.300;12.394;2022-07-06T08:54:40;3.87;;;1.57;;
25327;SDS011;13279;51.300;12.394;2022-07-06T08:57:10;1.33;;;1.00;;
25327;SDS011;13279;51.300;12.394;2022-07-06T08:59:40;4.10;;;1.10;;
25327;SDS011;13279;51.300;12.394;2022-07-06T09:02:09;2.87;;;1.20;;
25327;SDS011;13279;51.300;12.394;2022-07-06T09:04:37;2.93;;;1.47;;
25327;SDS011;13279;51.300;12.394;2022-07-06T09:07:05;0.90;;;0.70;;
25327;SDS011;13279;51.300;12.394;2022-07-06T09:09:33;5.13;;;1.20;;
25327;SDS011;13279;51.300;12.394;2022-07-06T09:12:03;0.80;;;0.80;;
25327;SDS011;13279;51.300;12.394;2022-07-06T09:14:36;3.13;;;1.10;;
25327;SDS011;13279;51.300;12.394;2022-07-06T09:17:04;3.70;;;0.87;;
25327;SDS011;13279;51.300;12.394;2022-07-06T09:19:33;3.93;;;1.00;;
25327;SDS011;13279;51.300;12.394;2022-07-06T09:22:01;2.80;;;1.13;;
25327;SDS011;13279;51.300;12.394;2022-07-06T09:24:29;1.50;;;0.80;;
25327;SDS011;13279;51.300;12.394;2022-07-06T09:26:58;3.67;;;1.10;;
25327;SDS011;13279;51.300;12.394;2022-07-06T09:29:27;7.07;;;1.00;;
25327;SDS011;13279;51.300;12.394;2022-07-06T09:31:57;6.47;;;0.90;;
25327;SDS011;13279;51.300;12.394;2022-07-06T09:34:33;4.90;;;1.53;;
25327;SDS011;13279;51.300;12.394;2022-07-06T09:37:07;2.93;;;1.77;;
25327;SDS011;13279;51.300;12.394;2022-07-06T09:39:36;1.33;;;1.07;;
25327;SDS011;13279;51.300;12.394;2022-07-06T09:42:03;4.83;;;0.90;;
25327;SDS011;13279;51.300;12.394;2022-07-06T09:44:34;2.83;;;1.00;;
25327;SDS011;13279;51.300;12.394;2022-07-06T09:47:04;2.57;;;1.07;;
25327;SDS011;13279;51.300;12.394;2022-07-06T09:49:34;6.17;;;0.90;;
25327;SDS011;13279;51.300;12.394;2022-07-06T09:52:02;2.17;;;0.97;;
25327;SDS011;13279;51.300;12.394;2022-07-06T09:54:32;4.17;;;1.00;;
25327;SDS011;13279;51.300;12.394;2022-07-06T09:57:00;4.73;;;0.90;;
25327;SDS011;13279;51.300;12.394;2022-07-06T09:59:28;4.30;;;1.07;;
25327;SDS011;13279;51.300;12.394;2022-07-06T10:01:58;1.97;;;0.80;;
25327;SDS011;13279;51.300;12.394;2022-07-06T10:04:28;1.73;;;0.73;;
25327;SDS011;13279;51.300;12.394;2022-07-06T10:06:57;4.00;;;0.93;;
25327;SDS011;13279;51.300;12.394;2022-07-06T10:09:25;2.83;;;1.03;;
25327;SDS011;13279;51.300;12.394;2022-07-06T10:11:57;5.03;;;1.10;;
25327;SDS011;13279;51.300;12.394;2022-07-06T10:14:27;5.40;;;1.60;;
25327;SDS011;13279;51.300;12.394;2022-07-06T10:16:55;8.43;;;1.30;;
25327;SDS011;13279;51.300;12.394;2022-07-06T10:19:24;4.10;;;1.00;;
25327;SDS011;13279;51.300;12.394;2022-07-06T10:21:54;1.00;;;0.70;;
25327;SDS011;13279;51.300;12.394;2022-07-06T10:24:25;1.87;;;0.70;;
25327;SDS011;13279;51.300;12.394;2022-07-06T10:26:55;10.70;;;1.03;;
25327;SDS011;13279;51.300;12.394;2022-07-06T10:29:23;2.13;;;0.80;;
25327;SDS011;13279;51.300;12.394;2022-07-06T10:31:52;3.80;;;1.30;;
25327;SDS011;13279;51.300;12.394;2022-07-06T10:34:22;7.70;;;1.23;;
25327;SDS011;13279;51.300;12.394;2022-07-06T10:36:50;2.97;;;1.00;;
25327;SDS011;13279;51.300;12.394;2022-07-06T10:39:34;3.93;;;1.20;;
25327;SDS011;13279;51.300;12.394;2022-07-06T10:45:06;2.40;;;1.00;;
25327;SDS011;13279;51.300;12.394;2022-07-06T10:47:34;3.33;;;1.00;;
25327;SDS011;13279;51.300;12.394;2022-07-06T10:50:02;3.13;;;1.10;;
25327;SDS011;13279;51.300;12.394;2022-07-06T10:52:50;3.80;;;1.10;;
25327;SDS011;13279;51.300;12.394;2022-07-06T10:55:29;6.63;;;0.90;;
25327;SDS011;13279;51.300;12.394;2022-07-06T10:57:58;2.33;;;0.73;;
25327;SDS011;13279;51.300;12.394;2022-07-06T11:00:26;3.90;;;0.70;;
25327;SDS011;13279;51.300;12.394;2022-07-06T11:03:30;2.83;;;0.97;;
25327;SDS011;13279;51.300;12.394;2022-07-06T11:05:59;4.93;;;1.00;;
25327;SDS011;13279;51.300;12.394;2022-07-06T11:11:19;1.70;;;0.63;;
25327;SDS011;13279;51.300;12.394;2022-07-06T11:13:48;3.50;;;0.87;;
25327;SDS011;13279;51.300;12.394;2022-07-06T11:16:18;4.23;;;0.90;;
25327;SDS011;13279;51.300;12.394;2022-07-06T11:18:47;3.27;;;0.93;;
25327;SDS011;13279;51.300;12.394;2022-07-06T11:21:16;2.53;;;1.00;;
25327;SDS011;13279;51.300;12.394;2022-07-06T11:23:46;2.93;;;0.80;;
25327;SDS011;13279;51.300;12.394;2022-07-06T11:26:14;3.27;;;0.97;;
25327;SDS011;13279;51.300;12.394;2022-07-06T11:28:45;3.03;;;1.00;;
25327;SDS011;13279;51.300;12.394;2022-07-06T11:31:15;15.57;;;1.03;;
25327;SDS011;13279;51.300;12.394;2022-07-06T11:33:44;6.67;;;0.90;;
25327;SDS011;13279;51.300;12.394;2022-07-06T11:36:13;2.00;;;1.10;;
25327;SDS011;13279;51.300;12.394;2022-07-06T11:38:42;3.80;;;0.70;;
25327;SDS011;13279;51.300;12.394;2022-07-06T11:41:11;1.50;;;0.70;;
25327;SDS011;13279;51.300;12.394;2022-07-06T11:43:40;4.77;;;1.07;;
25327;SDS011;13279;51.300;12.394;2022-07-06T11:46:20;2.67;;;1.10;;
25327;SDS011;13279;51.300;12.394;2022-07-06T11:48:49;4.73;;;1.30;;
25327;SDS011;13279;51.300;12.394;2022-07-06T11:51:17;2.27;;;0.90;;
25327;SDS011;13279;51.300;12.394;2022-07-06T11:53:45;5.00;;;0.83;;
25327;SDS011;13279;51.300;12.394;2022-07-06T11:56:14;5.83;;;0.90;;
25327;SDS011;13279;51.300;12.394;2022-07-06T11:58:44;2.77;;;1.30;;
25327;SDS011;13279;51.300;12.394;2022-07-06T12:01:13;6.37;;;0.90;;
25327;SDS011;13279;51.300;12.394;2022-07-06T12:03:43;2.47;;;0.90;;
25327;SDS011;13279;51.300;12.394;2022-07-06T12:06:15;5.93;;;1.23;;
25327;SDS011;13279;51.300;12.394;2022-07-06T12:08:45;3.00;;;1.10;;
25327;SDS011;13279;51.300;12.394;2022-07-06T12:11:19;4.10;;;0.90;;
25327;SDS011;13279;51.300;12.394;2022-07-06T12:13:48;1.37;;;0.73;;
25327;SDS011;13279;51.300;12.394;2022-07-06T12:16:16;0.70;;;0.70;;
25327;SDS011;13279;51.300;12.394;2022-07-06T12:18:47;5.57;;;1.20;;
25327;SDS011;13279;51.300;12.394;2022-07-06T12:21:16;1.37;;;0.97;;
25327;SDS011;13279;51.300;12.394;2022-07-06T12:23:47;3.53;;;1.20;;
25327;SDS011;13279;51.300;12.394;2022-07-06T12:26:17;4.27;;;0.70;;
25327;SDS011;13279;51.300;12.394;2022-07-06T12:28:46;5.20;;;0.63;;
25327;SDS011;13279;51.300;12.394;2022-07-06T12:31:32;0.87;;;0.77;;
25327;SDS011;13279;51.300;12.394;2022-07-06T12:34:02;1.60;;;0.70;;
25327;SDS011;13279;51.300;12.394;2022-07-06T12:36:31;3.20;;;1.10;;
25327;SDS011;13279;51.300;12.394;2022-07-06T12:39:09;3.77;;;0.80;;
25327;SDS011;13279;51.300;12.394;2022-07-06T12:41:41;4.23;;;0.67;;
25327;SDS011;13279;51.300;12.394;2022-07-06T12:44:11;2.73;;;0.90;;
25327;SDS011;13279;51.300;12.394;2022-07-06T12:46:39;5.50;;;0.93;;
25327;SDS011;13279;51.300;12.394;2022-07-06T12:49:13;3.47;;;0.90;;
25327;SDS011;13279;51.300;12.394;2022-07-06T12:51:52;1.20;;;0.53;;
25327;SDS011;13279;51.300;12.394;2022-07-06T12:54:25;3.13;;;0.80;;
25327;SDS011;13279;51.300;12.394;2022-07-06T12:56:59;1.73;;;0.80;;
25327;SDS011;13279;51.300;12.394;2022-07-06T12:59:37;2.67;;;0.77;;
25327;SDS011;13279;51.300;12.394;2022-07-06T13:02:06;4.63;;;0.80;;
25327;SDS011;13279;51.300;12.394;2022-07-06T13:04:36;2.67;;;0.90;;
25327;SDS011;13279;51.300;12.394;2022-07-06T13:07:04;2.63;;;0.90;;
25327;SDS011;13279;51.300;12.394;2022-07-06T13:09:33;1.87;;;0.67;;
25327;SDS011;13279;51.300;12.394;2022-07-06T13:12:00;0.60;;;0.50;;
25327;SDS011;13279;51.300;12.394;2022-07-06T13:14:27;2.73;;;0.80;;
25327;SDS011;13279;51.300;12.394;2022-07-06T13:16:55;1.40;;;0.63;;
25327;SDS011;13279;51.300;12.394;2022-07-06T13:19:22;3.33;;;0.60;;
25327;SDS011;13279;51.300;12.394;2022-07-06T13:21:51;6.77;;;1.23;;
25327;SDS011;13279;51.300;12.394;2022-07-06T13:24:18;3.80;;;0.90;;
25327;SDS011;13279;51.300;12.394;2022-07-06T13:26:46;2.57;;;0.83;;
25327;SDS011;13279;51.300;12.394;2022-07-06T13:29:13;1.33;;;0.70;;
25327;SDS011;13279;51.300;12.394;2022-07-06T13:31:41;6.57;;;1.00;;
25327;SDS011;13279;51.300;12.394;2022-07-06T13:34:08;4.43;;;1.00;;
25327;SDS011;13279;51.300;12.394;2022-07-06T13:36:35;7.03;;;1.10;;
25327;SDS011;13279;51.300;12.394;2022-07-06T13:39:05;1.67;;;1.00;;
25327;SDS011;13279;51.300;12.394;2022-07-06T13:41:33;3.70;;;0.70;;
25327;SDS011;13279;51.300;12.394;2022-07-06T13:44:01;5.97;;;0.70;;
25327;SDS011;13279;51.300;12.394;2022-07-06T13:46:29;3.58;;;0.80;;
25327;SDS011;13279;51.300;12.394;2022-07-06T13:48:57;5.05;;;1.05;;
25327;SDS011;13279;51.300;12.394;2022-07-06T13:51:25;2.22;;;0.70;;
25327;SDS011;13279;51.300;12.394;2022-07-06T13:53:54;2.85;;;0.95;;
25327;SDS011;13279;51.300;12.394;2022-07-06T13:56:23;9.82;;;0.60;;
25327;SDS011;13279;51.300;12.394;2022-07-06T13:58:50;1.33;;;0.75;;
25327;SDS011;13279;51.300;12.394;2022-07-06T14:01:18;3.53;;;0.60;;
25327;SDS011;13279;51.300;12.394;2022-07-06T14:03:46;2.85;;;0.75;;
25327;SDS011;13279;51.300;12.394;2022-07-06T14:06:13;2.97;;;0.60;;
25327;SDS011;13279;51.300;12.394;2022-07-06T14:08:41;5.43;;;0.93;;
25327;SDS011;13279;51.300;12.394;2022-07-06T14:11:09;3.03;;;0.73;;
25327;SDS011;13279;51.300;12.394;2022-07-06T14:13:38;8.47;;;1.00;;
25327;SDS011;13279;51.300;12.394;2022-07-06T14:16:06;2.93;;;0.97;;
25327;SDS011;13279;51.300;12.394;2022-07-06T14:18:34;3.20;;;0.77;;
25327;SDS011;13279;51.300;12.394;2022-07-06T14:21:01;8.80;;;1.07;;
25327;SDS011;13279;51.300;12.394;2022-07-06T14:23:29;4.83;;;1.13;;
25327;SDS011;13279;51.300;12.394;2022-07-06T14:25:57;8.68;;;1.15;;
25327;SDS011;13279;51.300;12.394;2022-07-06T14:28:24;2.97;;;0.73;;
25327;SDS011;13279;51.300;12.394;2022-07-06T14:30:53;4.40;;;0.57;;
25327;SDS011;13279;51.300;12.394;2022-07-06T14:33:20;1.13;;;0.60;;
25327;SDS011;13279;51.300;12.394;2022-07-06T14:35:49;7.28;;;0.70;;
25327;SDS011;13279;51.300;12.394;2022-07-06T14:38:17;5.45;;;0.70;;
25327;SDS011;13279;51.300;12.394;2022-07-06T14:40:45;3.03;;;0.65;;
25327;SDS011;13279;51.300;12.394;2022-07-06T14:43:15;2.55;;;0.60;;
25327;SDS011;13279;51.300;12.394;2022-07-06T14:45:43;1.67;;;0.43;;
25327;SDS011;13279;51.300;12.394;2022-07-06T14:48:13;3.35;;;0.45;;
25327;SDS011;13279;51.300;12.394;2022-07-06T14:50:40;5.50;;;0.70;;
25327;SDS011;13279;51.300;12.394;2022-07-06T14:53:08;3.70;;;0.63;;
25327;SDS011;13279;51.300;12.394;2022-07-06T14:55:35;3.10;;;1.03;;
25327;SDS011;13279;51.300;12.394;2022-07-06T14:58:02;2.77;;;0.50;;
25327;SDS011;13279;51.300;12.394;2022-07-06T15:00:30;5.30;;;0.63;;
25327;SDS011;13279;51.300;12.394;2022-07-06T15:02:57;2.33;;;0.70;;
25327;SDS011;13279;51.300;12.394;2022-07-06T15:05:26;2.13;;;0.97;;
25327;SDS011;13279;51.300;12.394;2022-07-06T15:07:54;1.50;;;0.70;;
25327;SDS011;13279;51.300;12.394;2022-07-06T15:10:22;3.17;;;0.70;;
25327;SDS011;13279;51.300;12.394;2022-07-06T15:12:49;5.00;;;1.00;;
25327;SDS011;13279;51.300;12.394;2022-07-06T15:15:16;2.23;;;0.60;;
25327;SDS011;13279;51.300;12.394;2022-07-06T15:17:44;2.77;;;0.73;;
25327;SDS011;13279;51.300;12.394;2022-07-06T15:20:11;3.67;;;1.00;;
25327;SDS011;13279;51.300;12.394;2022-07-06T15:22:40;6.30;;;1.43;;
25327;SDS011;13279;51.300;12.394;2022-07-06T15:25:08;3.20;;;0.80;;
25327;SDS011;13279;51.300;12.394;2022-07-06T15:27:36;4.27;;;0.60;;
25327;SDS011;13279;51.300;12.394;2022-07-06T15:30:04;1.10;;;0.40;;
25327;SDS011;13279;51.300;12.394;2022-07-06T15:32:33;6.25;;;0.75;;
25327;SDS011;13279;51.300;12.394;2022-07-06T15:35:04;1.67;;;0.80;;
25327;SDS011;13279;51.300;12.394;2022-07-06T15:37:32;6.18;;;0.90;;
25327;SDS011;13279;51.300;12.394;2022-07-06T15:40:01;2.53;;;0.43;;
25327;SDS011;13279;51.300;12.394;2022-07-06T15:42:30;1.53;;;0.57;;
25327;SDS011;13279;51.300;12.394;2022-07-06T15:44:58;1.67;;;0.60;;
25327;SDS011;13279;51.300;12.394;2022-07-06T15:47:25;3.30;;;0.70;;
25327;SDS011;13279;51.300;12.394;2022-07-06T15:49:53;5.63;;;0.63;;
25327;SDS011;13279;51.300;12.394;2022-07-06T15:52:20;4.40;;;0.77;;
25327;SDS011;13279;51.300;12.394;2022-07-06T15:54:48;4.90;;;0.70;;
25327;SDS011;13279;51.300;12.394;2022-07-06T15:57:17;1.90;;;0.60;;
25327;SDS011;13279;51.300;12.394;2022-07-06T15:59:44;6.20;;;1.00;;
25327;SDS011;13279;51.300;12.394;2022-07-06T16:02:12;2.63;;;0.60;;
25327;SDS011;13279;51.300;12.394;2022-07-06T16:04:39;3.20;;;0.67;;
25327;SDS011;13279;51.300;12.394;2022-07-06T16:07:07;2.40;;;0.80;;
25327;SDS011;13279;51.300;12.394;2022-07-06T16:09:34;2.63;;;0.60;;
25327;SDS011;13279;51.300;12.394;2022-07-06T16:12:02;2.77;;;0.50;;
25327;SDS011;13279;51.300;12.394;2022-07-06T16:14:31;0.87;;;0.70;;
25327;SDS011;13279;51.300;12.394;2022-07-06T16:16:58;2.07;;;0.70;;
25327;SDS011;13279;51.300;12.394;2022-07-06T16:19:26;3.03;;;0.80;;
25327;SDS011;13279;51.300;12.394;2022-07-06T16:21:54;3.33;;;0.83;;
25327;SDS011;13279;51.300;12.394;2022-07-06T16:24:21;1.67;;;0.93;;
25327;SDS011;13279;51.300;12.394;2022-07-06T16:26:48;3.60;;;0.70;;
25327;SDS011;13279;51.300;12.394;2022-07-06T16:29:16;5.30;;;0.73;;
25327;SDS011;13279;51.300;12.394;2022-07-06T16:31:45;2.97;;;0.83;;
25327;SDS011;13279;51.300;12.394;2022-07-06T16:34:13;3.00;;;0.67;;
25327;SDS011;13279;51.300;12.394;2022-07-06T16:36:41;4.87;;;0.60;;
25327;SDS011;13279;51.300;12.394;2022-07-06T16:39:08;2.17;;;0.60;;
25327;SDS011;13279;51.300;12.394;2022-07-06T16:41:36;0.60;;;0.60;;
25327;SDS011;13279;51.300;12.394;2022-07-06T16:44:04;2.30;;;0.80;;
25327;SDS011;13279;51.300;12.394;2022-07-06T16:46:31;5.83;;;0.90;;
25327;SDS011;13279;51.300;12.394;2022-07-06T16:49:00;0.87;;;0.80;;
25327;SDS011;13279;51.300;12.394;2022-07-06T16:51:27;1.27;;;0.70;;
25327;SDS011;13279;51.300;12.394;2022-07-06T16:53:55;3.57;;;1.00;;
25327;SDS011;13279;51.300;12.394;2022-07-06T16:56:23;4.93;;;1.10;;
25327;SDS011;13279;51.300;12.394;2022-07-06T16:58:50;4.10;;;0.80;;
25327;SDS011;13279;51.300;12.394;2022-07-06T17:01:18;4.80;;;0.70;;
25327;SDS011;13279;51.300;12.394;2022-07-06T17:03:45;2.33;;;1.10;;
25327;SDS011;13279;51.300;12.394;2022-07-06T17:06:15;0.40;;;0.40;;
25327;SDS011;13279;51.300;12.394;2022-07-06T17:08:42;2.60;;;0.80;;
25327;SDS011;13279;51.300;12.394;2022-07-06T17:11:10;3.90;;;1.00;;
25327;SDS011;13279;51.300;12.394;2022-07-06T17:13:38;6.23;;;1.23;;
25327;SDS011;13279;51.300;12.394;2022-07-06T17:16:06;4.93;;;0.80;;
25327;SDS011;13279;51.300;12.394;2022-07-06T17:18:33;1.00;;;0.53;;
25327;SDS011;13279;51.300;12.394;2022-07-06T17:21:01;4.83;;;0.80;;
25327;SDS011;13279;51.300;12.394;2022-07-06T17:23:30;2.50;;;0.60;;
25327;SDS011;13279;51.300;12.394;2022-07-06T17:25:57;1.13;;;0.80;;
25327;SDS011;13279;51.300;12.394;2022-07-06T17:28:25;2.77;;;0.63;;
25327;SDS011;13279;51.300;12.394;2022-07-06T17:30:53;4.37;;;0.53;;
25327;SDS011;13279;51.300;12.394;2022-07-06T17:33:20;1.60;;;0.57;;
25327;SDS011;13279;51.300;12.394;2022-07-06T17:35:47;9.20;;;1.00;;
25327;SDS011;13279;51.300;12.394;2022-07-06T17:38:15;10.47;;;0.90;;
25327;SDS011;13279;51.300;12.394;2022-07-06T17:40:44;2.63;;;0.70;;
25327;SDS011;13279;51.300;12.394;2022-07-06T17:43:12;3.83;;;0.80;;
25327;SDS011;13279;51.300;12.394;2022-07-06T17:45:39;6.93;;;0.87;;
25327;SDS011;13279;51.300;12.394;2022-07-06T17:48:07;4.83;;;0.70;;
25327;SDS011;13279;51.300;12.394;2022-07-06T17:50:35;2.10;;;0.80;;
25327;SDS011;13279;51.300;12.394;2022-07-06T17:53:03;4.60;;;0.57;;
25327;SDS011;13279;51.300;12.394;2022-07-06T17:55:31;5.57;;;0.67;;
25327;SDS011;13279;51.300;12.394;2022-07-06T17:57:59;4.83;;;0.70;;
25327;SDS011;13279;51.300;12.394;2022-07-06T18:00:29;3.70;;;1.03;;
25327;SDS011;13279;51.300;12.394;2022-07-06T18:02:58;1.17;;;0.90;;
25327;SDS011;13279;51.300;12.394;2022-07-06T18:05:26;5.20;;;0.80;;
25327;SDS011;13279;51.300;12.394;2022-07-06T18:07:54;5.70;;;0.80;;